CheckWX is a tool to help pilots better visualize weather data.  It is not intended as a substitute for an official pre-flight weather briefing.

09:47:19 UTC

EGUL METAR
RAF Lakenheath Airport
Lakenheath, United Kingdom
Current

51 mins ago

EGUL 070856Z AUTO 24012KT 9999 OVC041 08/06 A2988 RMK AO2 SLP122 T00790055 52014 $
Observed
Dec-7 @ 08:56 UTC
Wind
  • 240° at 12 KTS
Visibility
10,000+ meters
Flight Rules
VFR
Cloud Levels
  • Overcast at 4,100' AGL
Temperature
C / 46°F
Dewpoint
C / 43°F
Humidity
87%
Altimeter
29.88" Hg
Pressure
1011.82 hPa
Previous

2 hours ago

EGUL 070756Z AUTO 24010KT 9999 OVC043 08/05 A2987 RMK AO2 SLP119 T00770053 $
Observed
Dec-7 @ 07:56 UTC
Wind
  • 240° at 10 KTS
Visibility
10,000+ meters
Flight Rules
VFR
Cloud Levels
  • Overcast at 4,300' AGL
Temperature
C / 46°F
Dewpoint
C / 41°F
Humidity
82%
Altimeter
29.87" Hg
Pressure
1011.52 hPa
Previous

3 hours ago

EGUL 070656Z AUTO 23012KT 9999 OVC038 08/05 A2985 RMK AO2 SLP112 T00750053 $
Observed
Dec-7 @ 06:56 UTC
Wind
  • 230° at 12 KTS
Visibility
10,000+ meters
Flight Rules
VFR
Cloud Levels
  • Overcast at 3,800' AGL
Temperature
C / 46°F
Dewpoint
C / 41°F
Humidity
82%
Altimeter
29.85" Hg
Pressure
1010.82 hPa